createdAt,value
2022-10-02T00:02:51.535Z,9.4
2022-10-02T00:05:51.576Z,9.4
2022-10-02T00:08:51.577Z,9.4
2022-10-02T00:11:51.598Z,9.4
2022-10-02T00:14:51.616Z,9.5
2022-10-02T00:17:51.633Z,9.5
2022-10-02T00:20:51.646Z,9.4
2022-10-02T00:23:51.690Z,9.4
2022-10-02T00:26:51.687Z,9.4
2022-10-02T00:29:51.718Z,9.4
2022-10-02T00:32:51.728Z,9.5
2022-10-02T00:35:51.734Z,9.4
2022-10-02T00:38:51.768Z,9.4
2022-10-02T00:41:51.832Z,9.4
2022-10-02T00:44:51.805Z,9.5
2022-10-02T00:47:51.822Z,9.5
2022-10-02T00:50:51.838Z,9.5
2022-10-02T00:53:51.854Z,9.6
2022-10-02T00:56:51.862Z,9.6
2022-10-02T00:59:51.894Z,9.6
2022-10-02T01:02:51.873Z,9.7
2022-10-02T01:05:51.884Z,9.6
2022-10-02T01:08:51.879Z,9.7
2022-10-02T01:11:51.879Z,9.7
2022-10-02T01:14:51.888Z,9.7
2022-10-02T01:17:51.913Z,9.8
2022-10-02T01:20:51.890Z,9.8
2022-10-02T01:23:51.887Z,9.8
2022-10-02T01:26:51.895Z,9.8
2022-10-02T01:29:51.900Z,9.7
2022-10-02T01:32:51.898Z,9.8
2022-10-02T01:35:51.922Z,9.8
2022-10-02T01:38:51.903Z,9.8
2022-10-02T01:41:51.907Z,9.8
2022-10-02T01:44:51.901Z,9.7
2022-10-02T01:47:51.911Z,9.8
2022-10-02T01:50:51.908Z,9.8
2022-10-02T01:53:51.939Z,9.8
2022-10-02T01:56:51.916Z,9.7
2022-10-02T01:59:51.925Z,9.7
2022-10-02T02:02:51.920Z,9.7
2022-10-02T02:05:51.933Z,9.7
2022-10-02T02:08:51.976Z,9.8
2022-10-02T02:11:52.002Z,9.8
2022-10-02T02:14:51.972Z,9.8
2022-10-02T02:17:52.036Z,9.8
2022-10-02T02:20:51.981Z,9.8
2022-10-02T02:23:51.981Z,9.8
2022-10-02T02:26:51.982Z,9.8
2022-10-02T02:29:52.010Z,9.9
2022-10-02T02:32:51.991Z,9.9
2022-10-02T02:35:51.988Z,10
2022-10-02T02:38:51.991Z,10
2022-10-02T02:41:51.994Z,10
2022-10-02T02:44:51.999Z,9.9
2022-10-02T02:47:52.019Z,9.9
2022-10-02T02:50:52.002Z,9.9
2022-10-02T02:53:52.004Z,9.7
2022-10-02T02:56:51.997Z,9.6
2022-10-02T02:59:52.004Z,9.6
2022-10-02T03:02:52.007Z,9.5
2022-10-02T03:05:52.032Z,9.5
2022-10-02T03:08:52.007Z,9.4
2022-10-02T03:11:52.004Z,9.4
2022-10-02T03:14:52.012Z,9.3
2022-10-02T03:17:52.012Z,9.3
2022-10-02T03:20:52.008Z,9.4
2022-10-02T03:23:52.042Z,9.4
2022-10-02T03:26:52.016Z,9.4
2022-10-02T03:29:52.021Z,9.4
2022-10-02T03:32:52.139Z,9.3
2022-10-02T03:35:52.036Z,9.4
2022-10-02T03:39:06.460Z,9.4
2022-10-02T03:41:52.065Z,9.4
2022-10-02T03:44:52.207Z,9.5
2022-10-02T03:47:52.030Z,9.5
2022-10-02T03:50:52.035Z,9.6
2022-10-02T03:53:52.046Z,9.6
2022-10-02T03:56:52.044Z,9.7
2022-10-02T03:59:52.068Z,9.7
2022-10-02T04:02:52.048Z,9.8
2022-10-02T04:05:52.050Z,9.8
2022-10-02T04:08:52.048Z,9.8
2022-10-02T04:11:52.056Z,9.8
2022-10-02T04:14:52.058Z,9.7
2022-10-02T04:17:54.726Z,9.6
2022-10-02T04:20:52.066Z,9.6
2022-10-02T04:23:52.065Z,9.5
2022-10-02T04:26:52.072Z,9.5
2022-10-02T04:29:52.071Z,9.5
2022-10-02T04:32:52.079Z,9.5
2022-10-02T04:35:52.099Z,9.5
2022-10-02T04:38:52.078Z,9.5
2022-10-02T04:41:52.079Z,9.6
2022-10-02T04:44:52.087Z,9.6
2022-10-02T04:47:52.082Z,9.7
2022-10-02T04:50:52.103Z,9.7
2022-10-02T04:53:52.115Z,9.6
2022-10-02T04:56:52.092Z,9.7
2022-10-02T04:59:52.102Z,9.7
2022-10-02T05:02:52.106Z,9.6
2022-10-02T05:05:52.103Z,9.6
2022-10-02T05:08:52.103Z,9.6
2022-10-02T05:11:52.141Z,9.6
2022-10-02T05:14:52.118Z,9.5
2022-10-02T05:17:52.122Z,9.6
2022-10-02T05:20:52.124Z,9.6
2022-10-02T05:23:52.127Z,9.7
2022-10-02T05:26:52.129Z,9.7
2022-10-02T05:29:52.154Z,9.7
2022-10-02T05:32:52.144Z,9.8
2022-10-02T05:35:52.143Z,9.8
2022-10-02T05:38:52.150Z,9.9
2022-10-02T05:41:52.145Z,10
2022-10-02T05:44:52.156Z,10.1
2022-10-02T05:47:52.182Z,10.2
2022-10-02T05:50:52.147Z,10.3
2022-10-02T05:53:52.159Z,10.3
2022-10-02T05:56:52.163Z,10.3
2022-10-02T05:59:52.166Z,10.4
2022-10-02T06:02:52.511Z,10.5
2022-10-02T06:05:52.196Z,10.6
2022-10-02T06:08:52.173Z,10.7
2022-10-02T06:11:52.187Z,10.7
2022-10-02T06:14:52.184Z,10.8
2022-10-02T06:17:52.182Z,10.9
2022-10-02T06:20:52.190Z,10.9
2022-10-02T06:23:52.223Z,10.9
2022-10-02T06:26:52.196Z,10.9
2022-10-02T06:29:52.200Z,10.9
2022-10-02T06:32:52.207Z,10.9
2022-10-02T06:35:52.216Z,10.8
2022-10-02T06:38:52.214Z,10.8
2022-10-02T06:41:52.245Z,10.8
2022-10-02T06:44:52.224Z,10.9
2022-10-02T06:47:52.224Z,11.1
2022-10-02T06:50:52.235Z,11.3
2022-10-02T06:53:52.239Z,11.4
2022-10-02T06:56:52.246Z,11.6
2022-10-02T06:59:52.267Z,11.8
2022-10-02T07:02:52.247Z,11.8
2022-10-02T07:05:52.254Z,12.2
2022-10-02T07:08:52.252Z,12.2
2022-10-02T07:11:52.268Z,12
2022-10-02T07:14:52.274Z,11.7
2022-10-02T07:17:52.296Z,11.6
2022-10-02T07:20:52.332Z,11.7
2022-10-02T07:23:52.281Z,11.7
2022-10-02T07:26:52.307Z,11.7
2022-10-02T07:29:52.289Z,11.9
2022-10-02T07:32:52.291Z,12.1
2022-10-02T07:35:52.329Z,12.2
2022-10-02T07:38:52.306Z,12.3
2022-10-02T07:41:52.305Z,12.4
2022-10-02T07:44:52.314Z,12.4
2022-10-02T07:47:52.316Z,12.6
2022-10-02T07:50:52.327Z,12.7
2022-10-02T07:53:52.358Z,12.7
2022-10-02T07:56:52.334Z,12.7
2022-10-02T07:59:52.344Z,12.6
2022-10-02T08:02:52.400Z,12.6
2022-10-02T08:05:52.356Z,12.4
2022-10-02T08:08:52.356Z,12.3
2022-10-02T08:11:52.385Z,12.1
2022-10-02T08:14:52.367Z,12
2022-10-02T08:17:52.373Z,12.1
2022-10-02T08:20:52.375Z,12
2022-10-02T08:23:52.380Z,11.9
2022-10-02T08:26:52.387Z,12.4
2022-10-02T08:29:52.414Z,12.4
2022-10-02T08:32:52.404Z,12.5
2022-10-02T08:35:52.402Z,12.4
2022-10-02T08:38:54.720Z,12.7
2022-10-02T08:41:52.419Z,12.9
2022-10-02T08:44:52.427Z,13.2
2022-10-02T08:47:52.450Z,12.9
2022-10-02T08:50:52.441Z,13.1
2022-10-02T08:53:52.440Z,12.9
2022-10-02T08:56:52.445Z,13
2022-10-02T08:59:52.445Z,13
2022-10-02T09:02:52.456Z,12.6
2022-10-02T09:05:52.565Z,12.5
2022-10-02T09:08:52.463Z,12.4
2022-10-02T09:11:52.468Z,12.6
2022-10-02T09:14:55.682Z,12.8
2022-10-02T09:17:52.476Z,12.7
2022-10-02T09:20:52.483Z,12.6
2022-10-02T09:23:52.539Z,12.3
2022-10-02T09:26:52.498Z,12.5
2022-10-02T09:29:52.501Z,12.6
2022-10-02T09:32:52.510Z,13
2022-10-02T09:35:52.516Z,12.6
2022-10-02T09:38:52.527Z,12.4
2022-10-02T09:41:52.553Z,12.3
2022-10-02T09:44:52.543Z,12.5
2022-10-02T09:47:52.550Z,12.9
2022-10-02T09:50:52.555Z,13
2022-10-02T09:53:52.560Z,12.7
2022-10-02T09:56:52.560Z,12.6
2022-10-02T09:59:52.597Z,12.8
2022-10-02T10:02:52.567Z,12.4
2022-10-02T10:05:52.587Z,12.3
2022-10-02T10:08:52.578Z,12.1
2022-10-02T10:11:52.587Z,12.2
2022-10-02T10:14:52.589Z,12.2
2022-10-02T10:17:52.619Z,11.9
2022-10-02T10:20:52.597Z,12.1
2022-10-02T10:23:52.605Z,11.7
2022-10-02T10:26:52.606Z,11.7
2022-10-02T10:29:52.612Z,11.9
2022-10-02T10:32:52.620Z,12
2022-10-02T10:35:52.650Z,11.5
2022-10-02T10:38:52.617Z,11.5
2022-10-02T10:41:52.627Z,11.4
2022-10-02T10:44:52.707Z,11.1
2022-10-02T10:47:52.638Z,11.1
2022-10-02T10:50:52.644Z,11
2022-10-02T10:53:52.672Z,11.1
2022-10-02T10:56:52.640Z,11
2022-10-02T10:59:52.645Z,11
2022-10-02T11:02:52.648Z,10.9
2022-10-02T11:05:52.647Z,11.1
2022-10-02T11:08:52.653Z,11.1
2022-10-02T11:11:52.677Z,11
2022-10-02T11:14:52.656Z,11.2
2022-10-02T11:17:52.662Z,11.6
2022-10-02T11:20:52.666Z,11.4
2022-10-02T11:23:52.658Z,11.2
2022-10-02T11:26:52.671Z,11.3
2022-10-02T11:29:52.692Z,11.1
2022-10-02T11:32:52.665Z,10.9
2022-10-02T11:35:52.682Z,10.8
2022-10-02T11:38:52.681Z,11.2
2022-10-02T11:41:52.692Z,11.3
2022-10-02T11:44:52.693Z,11.5
2022-10-02T11:47:52.730Z,11.5
2022-10-02T11:50:52.715Z,11.7
2022-10-02T11:53:52.714Z,11.5
2022-10-02T11:56:52.719Z,11.5
2022-10-02T11:59:52.725Z,11.3
2022-10-02T12:02:52.787Z,11.2
2022-10-02T12:05:52.762Z,10.7
2022-10-02T12:08:52.744Z,10.6
2022-10-02T12:11:52.742Z,10.7
2022-10-02T12:14:52.752Z,10.7
2022-10-02T12:17:52.760Z,10.6
2022-10-02T12:20:52.764Z,10.7
2022-10-02T12:23:52.795Z,11.4
2022-10-02T12:26:52.787Z,11.2
2022-10-02T12:29:52.791Z,11
2022-10-02T12:32:52.797Z,10.7
2022-10-02T12:35:52.795Z,10.9
2022-10-02T12:38:52.804Z,11.3
2022-10-02T12:41:52.835Z,11.3
2022-10-02T12:44:52.813Z,11.6
2022-10-02T12:47:52.823Z,11.8
2022-10-02T12:50:52.836Z,11.9
2022-10-02T12:53:52.843Z,11.9
2022-10-02T12:56:52.848Z,11.9
2022-10-02T12:59:52.878Z,11.8
2022-10-02T13:03:01.497Z,11.9
2022-10-02T13:05:52.878Z,11.6
2022-10-02T13:08:52.875Z,11.6
2022-10-02T13:11:55.799Z,11.6
2022-10-02T13:14:52.888Z,11.7
2022-10-02T13:17:52.918Z,11.7
2022-10-02T13:20:52.894Z,11.8
2022-10-02T13:23:52.900Z,12
2022-10-02T13:26:52.907Z,12.1
2022-10-02T13:29:52.908Z,12.2
2022-10-02T13:32:52.908Z,12.2
2022-10-02T13:35:52.944Z,12.2
2022-10-02T13:38:52.920Z,12.2
2022-10-02T13:41:52.923Z,12.1
2022-10-02T13:44:52.915Z,12.1
2022-10-02T13:47:52.923Z,12.4
2022-10-02T13:50:52.919Z,12.3
2022-10-02T13:53:52.949Z,12
2022-10-02T13:56:52.922Z,12
2022-10-02T13:59:52.930Z,11.8
2022-10-02T14:02:52.929Z,11.5
2022-10-02T14:05:57.162Z,11.3
2022-10-02T14:08:52.960Z,11.1
2022-10-02T14:11:52.957Z,11.2
2022-10-02T14:14:52.940Z,11.3
2022-10-02T14:17:53.026Z,11.1
2022-10-02T14:20:52.941Z,11
2022-10-02T14:23:52.938Z,11.1
2022-10-02T14:26:52.948Z,11.2
2022-10-02T14:29:52.973Z,11.3
2022-10-02T14:32:52.960Z,11.4
2022-10-02T14:35:52.953Z,11.5
2022-10-02T14:38:52.955Z,11.5
2022-10-02T14:41:52.960Z,11.5
2022-10-02T14:44:52.963Z,11.5
2022-10-02T14:47:52.986Z,11.5
2022-10-02T14:50:52.964Z,11.5
2022-10-02T14:53:52.967Z,11.4
2022-10-02T14:56:52.963Z,11.2
2022-10-02T14:59:52.971Z,11.2
2022-10-02T15:02:52.970Z,11
2022-10-02T15:05:53.002Z,11.1
2022-10-02T15:08:52.975Z,11.1
2022-10-02T15:11:52.982Z,11
2022-10-02T15:14:52.981Z,10.9
2022-10-02T15:17:52.982Z,9.7
2022-10-02T15:20:52.984Z,9.4
2022-10-02T15:23:53.007Z,9.5
2022-10-02T15:26:52.987Z,9.3
2022-10-02T15:29:52.989Z,9.5
2022-10-02T15:32:52.992Z,9.6
2022-10-02T15:35:52.994Z,9.7
2022-10-02T15:38:52.994Z,9.8
2022-10-02T15:41:53.016Z,9.8
2022-10-02T15:44:52.999Z,9.8
2022-10-02T15:47:52.997Z,9.9
2022-10-02T15:50:53.003Z,10
2022-10-02T15:53:53.005Z,10
2022-10-02T15:56:53.014Z,10
2022-10-02T15:59:53.036Z,10.1
2022-10-02T16:02:53.009Z,10.2
2022-10-02T16:05:53.015Z,10.1
2022-10-02T16:08:53.024Z,10.2
2022-10-02T16:11:53.018Z,10.1
2022-10-02T16:14:53.018Z,10.1
2022-10-02T16:17:53.076Z,10.1
2022-10-02T16:20:53.022Z,10.1
2022-10-02T16:23:53.024Z,10.1
2022-10-02T16:26:53.029Z,10.1
2022-10-02T16:29:53.027Z,10.1
2022-10-02T16:32:53.035Z,10.1
2022-10-02T16:35:53.053Z,10.1
2022-10-02T16:38:53.033Z,10
2022-10-02T16:41:56.457Z,10
2022-10-02T16:44:53.035Z,10
2022-10-02T16:47:53.039Z,9.9
2022-10-02T16:50:53.035Z,9.9
2022-10-02T16:53:53.061Z,9.9
2022-10-02T16:56:53.049Z,9.8
2022-10-02T16:59:53.057Z,9.8
2022-10-02T17:02:53.084Z,9.8
2022-10-02T17:05:53.048Z,9.7
2022-10-02T17:08:53.052Z,9.7
2022-10-02T17:11:53.085Z,9.7
2022-10-02T17:14:53.059Z,9.7
2022-10-02T17:17:53.060Z,9.7
2022-10-02T17:20:53.067Z,9.7
2022-10-02T17:23:53.063Z,9.7
2022-10-02T17:26:53.067Z,9.7
2022-10-02T17:29:53.096Z,9.7
2022-10-02T17:32:53.078Z,9.7
2022-10-02T17:35:53.076Z,9.7
2022-10-02T17:38:53.103Z,9.7
2022-10-02T17:41:53.089Z,9.7
2022-10-02T17:44:53.091Z,9.7
2022-10-02T17:47:53.118Z,9.7
2022-10-02T17:50:53.093Z,9.7
2022-10-02T17:53:53.096Z,9.7
2022-10-02T17:56:53.099Z,9.6
2022-10-02T17:59:53.101Z,9.6
2022-10-02T18:02:53.105Z,9.7
2022-10-02T18:05:53.134Z,9.6
2022-10-02T18:08:53.112Z,9.7
2022-10-02T18:11:53.118Z,9.7
2022-10-02T18:14:53.120Z,9.7
2022-10-02T18:17:53.123Z,9.7
2022-10-02T18:20:53.126Z,9.7
2022-10-02T18:23:53.143Z,9.8
2022-10-02T18:26:53.126Z,9.8
2022-10-02T18:29:53.133Z,9.8
2022-10-02T18:32:53.134Z,9.8
2022-10-02T18:35:53.138Z,9.8
2022-10-02T18:38:53.130Z,9.8
2022-10-02T18:41:53.157Z,9.8
2022-10-02T18:44:53.144Z,9.8
2022-10-02T18:47:53.151Z,9.8
2022-10-02T18:50:53.154Z,9.9
2022-10-02T18:53:53.142Z,9.8
2022-10-02T18:56:53.162Z,9.8
2022-10-02T18:59:53.175Z,9.8
2022-10-02T19:02:53.160Z,9.8
2022-10-02T19:05:53.160Z,9.8
2022-10-02T19:08:53.162Z,9.8
2022-10-02T19:11:53.167Z,9.8
2022-10-02T19:14:53.172Z,9.8
2022-10-02T19:17:53.189Z,9.9
2022-10-02T19:20:53.162Z,10
2022-10-02T19:23:53.173Z,10
2022-10-02T19:26:53.179Z,10
2022-10-02T19:29:53.181Z,10
2022-10-02T19:32:53.184Z,10.1
2022-10-02T19:35:53.214Z,10.1
2022-10-02T19:38:53.193Z,10
2022-10-02T19:41:53.190Z,10
2022-10-02T19:44:53.192Z,10
2022-10-02T19:47:53.197Z,9.9
2022-10-02T19:50:53.200Z,9.9
2022-10-02T19:53:53.226Z,9.9
2022-10-02T19:56:53.209Z,10
2022-10-02T19:59:53.206Z,9.9
2022-10-02T20:02:53.218Z,10.1
2022-10-02T20:05:53.215Z,10.1
2022-10-02T20:08:53.214Z,10.1
2022-10-02T20:11:53.259Z,10
2022-10-02T20:14:53.231Z,10
2022-10-02T20:17:53.230Z,10
2022-10-02T20:20:53.242Z,9.9
2022-10-02T20:23:53.239Z,9.9
2022-10-02T20:26:53.243Z,9.9
2022-10-02T20:29:53.257Z,9.8
2022-10-02T20:32:53.243Z,9.8
2022-10-02T20:35:53.249Z,9.8
2022-10-02T20:38:53.252Z,9.8
2022-10-02T20:41:53.254Z,9.7
2022-10-02T20:44:53.259Z,9.7
2022-10-02T20:47:53.277Z,9.7
2022-10-02T20:50:53.263Z,9.7
2022-10-02T20:53:53.259Z,9.7
2022-10-02T20:56:53.261Z,9.7
2022-10-02T20:59:53.270Z,9.7
2022-10-02T21:02:53.294Z,9.8
2022-10-02T21:05:53.303Z,9.7
2022-10-02T21:08:53.283Z,9.6
2022-10-02T21:11:53.287Z,9.6
2022-10-02T21:14:53.298Z,9.6
2022-10-02T21:17:53.293Z,9.6
2022-10-02T21:20:53.293Z,9.6
2022-10-02T21:23:53.339Z,9.6
2022-10-02T21:26:53.313Z,9.6
2022-10-02T21:29:53.308Z,9.6
2022-10-02T21:32:53.311Z,9.6
2022-10-02T21:35:53.329Z,9.6
2022-10-02T21:38:53.327Z,9.5
2022-10-02T21:41:53.357Z,9.5
2022-10-02T21:44:53.342Z,9.5
2022-10-02T21:47:53.347Z,9.5
2022-10-02T21:50:53.351Z,9.5
2022-10-02T21:53:53.346Z,9.5
2022-10-02T21:56:53.348Z,9.5
2022-10-02T21:59:53.380Z,9.5
2022-10-02T22:02:53.358Z,9.5
2022-10-02T22:05:53.427Z,9.5
2022-10-02T22:08:53.362Z,9.4
2022-10-02T22:11:53.378Z,9.4
2022-10-02T22:14:53.372Z,9.4
2022-10-02T22:17:53.414Z,9.4
2022-10-02T22:20:53.386Z,9.3
2022-10-02T22:23:53.385Z,9.3
2022-10-02T22:26:53.398Z,9.3
2022-10-02T22:29:53.398Z,9.3
2022-10-02T22:32:53.404Z,9.3
2022-10-02T22:35:53.433Z,9.3
2022-10-02T22:38:53.414Z,9.3
2022-10-02T22:41:53.419Z,9.3
2022-10-02T22:44:53.419Z,9.3
2022-10-02T22:47:53.431Z,9.3
2022-10-02T22:50:53.431Z,9.3
2022-10-02T22:53:53.464Z,9.2
2022-10-02T22:56:53.440Z,9.3
2022-10-02T22:59:53.447Z,9.3
2022-10-02T23:02:53.474Z,9.2
2022-10-02T23:05:53.461Z,9.3
2022-10-02T23:08:53.463Z,9.3
2022-10-02T23:11:53.502Z,9.3
2022-10-02T23:14:53.474Z,9.3
2022-10-02T23:17:53.478Z,9.3
2022-10-02T23:20:53.477Z,9.3
2022-10-02T23:23:53.472Z,9.3
2022-10-02T23:26:53.491Z,9.3
2022-10-02T23:29:53.518Z,9.2
2022-10-02T23:32:53.500Z,9.2
2022-10-02T23:35:53.493Z,9.2
2022-10-02T23:38:53.497Z,9.2
2022-10-02T23:41:53.507Z,9.2
2022-10-02T23:44:53.530Z,9.2
2022-10-02T23:47:53.537Z,9.2
2022-10-02T23:50:53.519Z,9.2
2022-10-02T23:53:53.517Z,9.3
2022-10-02T23:56:53.530Z,9.2
2022-10-02T23:59:53.538Z,9.2
